Date,TemperatureHighF,TemperatureAvgF,TemperatureLowF,DewpointHighF,DewpointAvgF,DewpointLowF,HumidityHigh,HumidityAvg,HumidityLow,PressureMaxIn,PressureMinIn,WindSpeedMaxMPH,WindSpeedAvgMPH,GustSpeedMaxMPH,PrecipitationSumIn
2013-1-1,40.5,38.7,36.4,40.0,37.5,34.0,97,95,91,30.24,29.63,3,0,6,0.17
2013-1-2,36.8,33.5,26.0,34.0,31.3,25.0,95,91,87,30.32,30.23,3,0,4,0.00
2013-1-3,44.2,31.7,22.8,33.0,27.4,21.0,96,85,61,30.47,30.31,5,0,7,0.01
2013-1-4,46.3,32.4,23.3,34.0,27.2,22.0,96,83,49,30.54,30.39,3,0,6,0.01
2013-1-5,51.0,39.4,28.3,37.0,33.2,27.0,94,80,54,30.39,30.23,4,0,8,0.00
2013-1-6,51.9,38.2,28.5,36.0,30.2,26.0,96,76,44,30.40,30.26,7,1,11,0.00
2013-1-7,50.3,35.6,22.3,34.0,27.7,21.0,95,75,45,30.44,30.20,5,1,9,0.00
2013-1-8,53.1,41.4,28.2,45.0,35.5,25.0,95,81,59,30.25,30.11,7,1,10,0.20
2013-1-9,56.2,50.3,45.7,53.0,48.4,44.0,97,93,78,30.33,30.20,7,1,13,0.34
2013-1-10,59.3,53.9,47.3,58.0,52.8,46.0,97,96,94,30.21,29.84,8,3,15,0.08
2013-1-11,67.1,52.4,40.5,53.0,46.9,40.0,100,83,54,29.97,29.84,8,1,11,0.00
2013-1-12,59.4,54.1,49.6,59.0,52.8,48.0,97,95,91,29.89,29.64,8,1,12,3.50
2013-1-13,41.5,36.1,27.6,35.0,29.6,21.0,92,78,67,30.36,30.06,8,4,14,0.01
2013-1-14,38.8,29.3,21.3,27.0,21.2,18.0,88,72,58,30.47,30.33,9,2,11,0.00
2013-1-15,29.2,26.9,24.4,26.0,19.9,17.0,92,75,65,30.38,30.22,5,2,10,0.00
2013-1-20,57.6,48.5,43.0,36.0,34.4,33.0,74,60,43,30.19,30.13,3,0,6,0.00
2013-1-21,48.6,40.1,28.8,36.0,23.3,17.0,79,53,32,30.38,30.19,9,1,13,0.00
2013-1-22,41.0,32.7,24.7,25.0,22.3,19.0,82,67,49,30.44,30.31,7,1,10,0.00
2013-1-23,58.4,41.4,28.3,41.0,32.2,23.0,91,71,52,30.34,30.16,3,0,7,0.00
2013-1-24,46.3,39.2,32.2,41.0,28.1,20.0,94,66,45,30.39,30.21,14,5,16,0.00
2013-1-25,47.2,38.8,31.4,40.0,34.6,25.0,95,85,74,30.27,30.14,6,1,8,0.00
2013-1-26,51.9,42.5,28.4,39.0,32.9,27.0,96,72,45,30.34,30.22,9,2,13,0.00
2013-1-27,58.6,51.3,45.5,55.0,46.8,36.0,95,85,67,30.23,30.02,7,2,9,0.01
2013-1-28,70.2,66.0,57.2,64.0,61.9,55.0,95,87,81,30.05,29.91,8,2,13,0.01
2013-1-29,69.9,65.0,54.8,66.0,61.6,52.0,96,89,80,29.91,29.46,16,5,24,0.98
2013-1-30,54.8,43.0,32.9,51.0,35.9,27.0,92,76,61,30.09,29.50,14,3,23,0.01
2013-1-31,56.2,40.1,25.1,35.0,27.4,12.0,95,64,35,30.41,30.07,12,2,20,0.00